Terminal Aerodrome Forecast
Issued by NWS

Home | Current Version | Previous Version | Text Only | Print | Product List | Glossary Off
Versions: 1 2 3 4 5 6 7 8 9 10 11 12 13

000
FTUS43 KFGF 231136
TAFBJI
TAF
KBJI 231136Z 2312/2412 16007KT P6SM BKN250
     FM231500 18011KT P6SM BKN200
     FM240100 18011KT P6SM BKN080
     FM240300 19010KT P6SM VCTS BKN060CB
     FM240600 22007KT P6SM BKN030
     FM240800 25005KT P6SM BKN030
     FM240900 25004KT P6SM SCT035=

USA.gov is the U.S. government's official web portal to all federal, state and local government web resources and services.